Preview of NWS' New Version of Forecast
This preview is not operational and should not be used for support decisions.

Terminal Aerodrome Forecast (TAF)

Issued by National Weather Service (NWS)

                            
951 
FTUS42 KKEY 211137
TAFEYW
TAF
KEYW 211137Z 2112/2212 11016G22KT P6SM FEW025
     FM220200 10012G19KT P6SM SCT020 SCT035=